Map

Track Data

SID SEASON NUMBER BASIN SUBBASIN NAME ISO_TIME NATURE LAT LON WMO_WIND WMO_PRES WMO_AGENCY TRACK_TYPE DIST2LAND LANDFALL IFLAG USA_AGENCY USA_ATCF_ID USA_LAT USA_LON USA_RECORD USA_STATUS USA_WIND USA_PRES USA_SSHS USA_R34_NE USA_R34_SE USA_R34_SW USA_R34_NW USA_R50_NE USA_R50_SE USA_R50_SW USA_R50_NW USA_R64_NE USA_R64_SE USA_R64_SW USA_R64_NW USA_POCI USA_ROCI USA_RMW USA_EYE TOKYO_LAT TOKYO_LON TOKYO_GRADE TOKYO_WIND TOKYO_PRES TOKYO_R50_DIR TOKYO_R50_LONG TOKYO_R50_SHORT TOKYO_R30_DIR TOKYO_R30_LONG TOKYO_R30_SHORT TOKYO_LAND CMA_LAT CMA_LON CMA_CAT CMA_WIND CMA_PRES HKO_LAT HKO_LON HKO_CAT HKO_WIND HKO_PRES NEWDELHI_LAT NEWDELHI_LON NEWDELHI_GRADE NEWDELHI_WIND NEWDELHI_PRES NEWDELHI_CI NEWDELHI_DP NEWDELHI_POCI REUNION_LAT REUNION_LON REUNION_TYPE REUNION_WIND REUNION_PRES REUNION_TNUM REUNION_CI REUNION_RMW REUNION_R34_NE REUNION_R34_SE REUNION_R34_SW REUNION_R34_NW REUNION_R50_NE REUNION_R50_SE REUNION_R50_SW REUNION_R50_NW REUNION_R64_NE REUNION_R64_SE REUNION_R64_SW REUNION_R64_NW BOM_LAT BOM_LON BOM_TYPE BOM_WIND BOM_PRES BOM_TNUM BOM_CI BOM_RMW BOM_R34_NE BOM_R34_SE BOM_R34_SW BOM_R34_NW BOM_R50_NE BOM_R50_SE BOM_R50_SW BOM_R50_NW BOM_R64_NE BOM_R64_SE BOM_R64_SW BOM_R64_NW BOM_ROCI BOM_POCI BOM_EYE BOM_POS_METHOD BOM_PRES_METHOD NADI_LAT NADI_LON NADI_CAT NADI_WIND NADI_PRES WELLINGTON_LAT WELLINGTON_LON WELLINGTON_WIND WELLINGTON_PRES DS824_LAT DS824_LON DS824_STAGE DS824_WIND DS824_PRES TD9636_LAT TD9636_LON TD9636_STAGE TD9636_WIND TD9636_PRES TD9635_LAT TD9635_LON TD9635_WIND TD9635_PRES TD9635_ROCI NEUMANN_LAT NEUMANN_LON NEUMANN_CLASS NEUMANN_WIND NEUMANN_PRES MLC_LAT MLC_LON MLC_CLASS MLC_WIND MLC_PRES USA_GUST BOM_GUST BOM_GUST_PER REUNION_GUST REUNION_GUST_PER USA_SEAHGT USA_SEARAD_NE USA_SEARAD_SE USA_SEARAD_SW USA_SEARAD_NW STORM_SPEED STORM_DIR
1883011S26054 1883 1 SI MM NOT_NAMED 1883-01-11 00:00:00 TS -26.4000 54.0000 main 581 581 _________O____ -1 -26.4000 54.0000 TC 14 200
1883011S26054 1883 1 SI MM NOT_NAMED 1883-01-11 03:00:00 TS -27.0477 53.7332 main 654 654 _________P____ -1 -27.0477 53.7332 TC 14 199
1883011S26054 1883 1 SI MM NOT_NAMED 1883-01-11 06:00:00 TS -27.7000 53.5000 main 704 704 _________O____ -1 -27.7000 53.5000 TC 14 195
1883011S26054 1883 1 SI MM NOT_NAMED 1883-01-11 09:00:00 TS -28.3574 53.3272 main 722 722 _________P____ -1 -28.3574 53.3272 TC 13 192
1883011S26054 1883 1 SI MM NOT_NAMED 1883-01-11 12:00:00 TS -29.0000 53.2000 main 750 750 _________O____ -1 -29.0000 53.2000 TC 13 190
1883011S26054 1883 1 SI MM NOT_NAMED 1883-01-11 15:00:00 TS -29.6075 53.0701 main 783 783 _________P____ -1 -29.6075 53.0701 TC 12 188
1883011S26054 1883 1 SI MM NOT_NAMED 1883-01-11 18:00:00 TS -30.2000 53.0000 main 819 819 _________O____ -1 -30.2000 53.0000 TC 12 182
1883011S26054 1883 1 SI MM NOT_NAMED 1883-01-11 21:00:00 TS -30.8225 53.0197 main 866 866 _________P____ -1 -30.8225 53.0197 TC 12 176
1883011S26054 1883 1 SI MM NOT_NAMED 1883-01-12 00:00:00 TS -31.4000 53.1000 main 922 922 _________O____ -1 -31.4000 53.1000 TC 11 172
1883011S26054 1883 1 SI MM NOT_NAMED 1883-01-12 03:00:00 TS -31.8800 53.1851 main 970 970 _________P____ -1 -31.8800 53.1851 TC 9 170
1883011S26054 1883 1 SI MM NOT_NAMED 1883-01-12 06:00:00 TS -32.3000 53.3000 main 1010 1010 _________O____ -1 -32.3000 53.3000 TC 9 165
1883011S26054 1883 1 SI MM NOT_NAMED 1883-01-12 09:00:00 TS -32.7075 53.4426 main 1051 1051 _________P____ -1 -32.7075 53.4426 TC 8 162
1883011S26054 1883 1 SI MM NOT_NAMED 1883-01-12 12:00:00 TS -33.1000 53.6000 main 1098 1098 _________O____ -1 -33.1000 53.6000 TC 8 163
1883011S26054 1883 1 SI MM NOT_NAMED 1883-01-12 15:00:00 TS -33.5000 53.7427 main 1139 1139 _________P____ -1 -33.5000 53.7427 TC 8 163
1883011S26054 1883 1 SI MM NOT_NAMED 1883-01-12 18:00:00 TS -33.9000 53.9000 main 1186 1186 _________O____ -1 -33.9000 53.9000 TC 8 160
1883011S26054 1883 1 SI MM NOT_NAMED 1883-01-12 21:00:00 TS -34.2624 54.0708 main 1233 1233 _________P____ -1 -34.2624 54.0708 TC 9 157
1883011S26054 1883 1 SI MM NOT_NAMED 1883-01-13 00:00:00 TS -34.7000 54.3000 main 1280 1280 _________O____ -1 -34.7000 54.3000 TC 12 157
1883011S26054 1883 1 SI MM NOT_NAMED 1883-01-13 03:00:00 TS -35.3199 54.6125 main 1350 1350 _________P____ -1 -35.3199 54.6125 TC 14 156
1883011S26054 1883 1 SI MM NOT_NAMED 1883-01-13 06:00:00 TS -36.0000 55.0000 main 1435 1435 _________O____ -1 -36.0000 55.0000 TC 15 153
1883011S26054 1883 1 SI MM NOT_NAMED 1883-01-13 09:00:00 TS -36.6226 55.4425 main 1510 1510 _________P____ -1 -36.6226 55.4425 TC 14 149
1883011S26054 1883 1 SI MM NOT_NAMED 1883-01-13 12:00:00 TS -37.2000 55.9000 main 1590 1590 _________O____ -1 -37.2000 55.9000 TC 13 149
1883011S26054 1883 1 SI MM NOT_NAMED 1883-01-13 15:00:00 TS -37.7296 56.2935 main 1594 1529 _________P____ -1 -37.7296 56.2935 TC 12 148
1883011S26054 1883 1 SI MM NOT_NAMED 1883-01-13 18:00:00 TS -38.2000 56.7000 main 1529 1472 _________O____ -1 -38.2000 56.7000 TC 11 142
1883011S26054 1883 1 SI MM NOT_NAMED 1883-01-13 21:00:00 TS -38.6156 57.1762 main 1467 1406 _________P____ -1 -38.6156 57.1762 TC 11 136
1883011S26054 1883 1 SI MM NOT_NAMED 1883-01-14 00:00:00 TS -39.0000 57.7000 main 1406 _________O____ -1 -39.0000 57.7000 TC 11 133

About IBTrACS Database

This database is a web-friendly format of International Best Track Archive for Climate Stewardship (IBTrACS), a global best track data archive curated by NOAA dating back to 1842.

Updated: 2021-10-08